Huancavelica, Peru
Current Conditions -  °F | °C
As of 11:00 AM on Thursday 27 Nov 2014 (Local Time) from SPHO Reporting Station
Few Clouds Few Clouds  
Wind Chill: 75°   Ceiling: Unl
Heat Index: 75°   Visibility: 6mi
Dew Point: 39°   Wind: 6mph
Humidity: 27%   Direction: NA
Pressure: 30.3"   Gusts: NA
Location:  12.79°S, 74.99°W
Report Text: SPHO 271600Z VRB05KT 9999 FEW050 24/04 Q1026 RMK PP000
Loading
Personal Weather Stations






























Interactive Weather Map New forecast layout! Learn more

10-Day Weather Forecast

Advertisements
Track Severe Weather on mobile